sensor_id;sensor_type;location;lat;lon;timestamp;pressure;altitude;pressure_sealevel;temperature;humidity
4598;BME280;62772;48.646;8.906;2024-02-21T00:01:26;97259.78;;;3.26;100.00
4598;BME280;62772;48.646;8.906;2024-02-21T00:06:26;97250.81;;;3.10;100.00
4598;BME280;62772;48.646;8.906;2024-02-21T00:11:27;97249.88;;;2.99;100.00
4598;BME280;62772;48.646;8.906;2024-02-21T00:16:28;97254.13;;;3.17;100.00
4598;BME280;62772;48.646;8.906;2024-02-21T00:21:29;97240.44;;;3.20;100.00
4598;BME280;62772;48.646;8.906;2024-02-21T00:26:32;97225.66;;;3.53;100.00
4598;BME280;62772;48.646;8.906;2024-02-21T00:31:32;97211.78;;;3.46;100.00
4598;BME280;62772;48.646;8.906;2024-02-21T00:36:33;97211.97;;;3.56;100.00
4598;BME280;62772;48.646;8.906;2024-02-21T00:41:33;97223.16;;;3.47;100.00
4598;BME280;62772;48.646;8.906;2024-02-21T00:46:34;97218.34;;;3.43;100.00
4598;BME280;62772;48.646;8.906;2024-02-21T00:51:34;97212.75;;;3.57;100.00
4598;BME280;62772;48.646;8.906;2024-02-21T00:56:35;97206.44;;;3.41;100.00
4598;BME280;62772;48.646;8.906;2024-02-21T01:01:35;97206.03;;;3.49;100.00
4598;BME280;62772;48.646;8.906;2024-02-21T01:06:36;97192.81;;;3.66;100.00
4598;BME280;62772;48.646;8.906;2024-02-21T01:11:37;97184.34;;;3.30;100.00
4598;BME280;62772;48.646;8.906;2024-02-21T01:16:38;97172.16;;;3.63;100.00
4598;BME280;62772;48.646;8.906;2024-02-21T01:21:38;97170.50;;;3.57;100.00
4598;BME280;62772;48.646;8.906;2024-02-21T01:26:39;97159.47;;;3.82;100.00
4598;BME280;62772;48.646;8.906;2024-02-21T01:31:39;97153.56;;;3.58;100.00
4598;BME280;62772;48.646;8.906;2024-02-21T01:36:40;97144.13;;;3.62;100.00
4598;BME280;62772;48.646;8.906;2024-02-21T01:41:41;97142.13;;;3.69;100.00
4598;BME280;62772;48.646;8.906;2024-02-21T01:46:42;97137.34;;;3.66;100.00
4598;BME280;62772;48.646;8.906;2024-02-21T01:51:42;97126.53;;;3.68;100.00
4598;BME280;62772;48.646;8.906;2024-02-21T01:56:43;97115.56;;;3.59;100.00
4598;BME280;62772;48.646;8.906;2024-02-21T02:01:46;97116.25;;;3.32;100.00
4598;BME280;62772;48.646;8.906;2024-02-21T02:06:48;97097.88;;;3.37;100.00
4598;BME280;62772;48.646;8.906;2024-02-21T02:11:49;97092.66;;;3.42;100.00
4598;BME280;62772;48.646;8.906;2024-02-21T02:16:49;97082.28;;;3.36;100.00
4598;BME280;62772;48.646;8.906;2024-02-21T02:21:52;97076.56;;;3.44;100.00
4598;BME280;62772;48.646;8.906;2024-02-21T02:26:56;97070.91;;;3.57;100.00
4598;BME280;62772;48.646;8.906;2024-02-21T02:31:56;97066.75;;;3.61;100.00
4598;BME280;62772;48.646;8.906;2024-02-21T02:36:57;97059.13;;;3.65;100.00
4598;BME280;62772;48.646;8.906;2024-02-21T02:41:57;97055.69;;;3.65;100.00
4598;BME280;62772;48.646;8.906;2024-02-21T02:46:58;97042.44;;;3.37;100.00
4598;BME280;62772;48.646;8.906;2024-02-21T02:51:58;97027.13;;;3.39;100.00
4598;BME280;62772;48.646;8.906;2024-02-21T02:56:58;97037.19;;;3.42;100.00
4598;BME280;62772;48.646;8.906;2024-02-21T03:01:59;97033.63;;;3.32;100.00
4598;BME280;62772;48.646;8.906;2024-02-21T03:06:59;97032.75;;;3.48;100.00
4598;BME280;62772;48.646;8.906;2024-02-21T03:12:00;97008.69;;;3.44;100.00
4598;BME280;62772;48.646;8.906;2024-02-21T03:17:03;97009.19;;;3.41;100.00
4598;BME280;62772;48.646;8.906;2024-02-21T03:22:03;97015.25;;;3.42;100.00
4598;BME280;62772;48.646;8.906;2024-02-21T03:27:05;97000.28;;;3.25;100.00
4598;BME280;62772;48.646;8.906;2024-02-21T03:32:05;96989.72;;;3.48;100.00
4598;BME280;62772;48.646;8.906;2024-02-21T03:37:06;96987.94;;;3.53;100.00
4598;BME280;62772;48.646;8.906;2024-02-21T03:42:06;96977.91;;;3.55;100.00
4598;BME280;62772;48.646;8.906;2024-02-21T03:47:07;96980.06;;;3.58;100.00
4598;BME280;62772;48.646;8.906;2024-02-21T03:52:10;96984.13;;;3.44;100.00
4598;BME280;62772;48.646;8.906;2024-02-21T03:57:11;96976.81;;;3.51;100.00
4598;BME280;62772;48.646;8.906;2024-02-21T04:02:11;96968.44;;;3.59;100.00
4598;BME280;62772;48.646;8.906;2024-02-21T04:07:15;96960.31;;;3.39;100.00
4598;BME280;62772;48.646;8.906;2024-02-21T04:12:15;96953.72;;;3.41;100.00
4598;BME280;62772;48.646;8.906;2024-02-21T04:17:16;96946.72;;;3.52;100.00
4598;BME280;62772;48.646;8.906;2024-02-21T04:22:17;96939.72;;;3.63;100.00
4598;BME280;62772;48.646;8.906;2024-02-21T04:27:18;96939.06;;;3.51;100.00
4598;BME280;62772;48.646;8.906;2024-02-21T04:32:18;96933.53;;;3.52;100.00
4598;BME280;62772;48.646;8.906;2024-02-21T04:37:20;96934.81;;;3.27;100.00
4598;BME280;62772;48.646;8.906;2024-02-21T04:42:20;96943.47;;;3.45;100.00
4598;BME280;62772;48.646;8.906;2024-02-21T04:47:21;96935.25;;;3.41;100.00
4598;BME280;62772;48.646;8.906;2024-02-21T04:52:23;96939.28;;;3.22;100.00
4598;BME280;62772;48.646;8.906;2024-02-21T04:57:24;96941.63;;;3.18;100.00
4598;BME280;62772;48.646;8.906;2024-02-21T05:02:25;96939.56;;;2.81;100.00
4598;BME280;62772;48.646;8.906;2024-02-21T05:07:26;96942.19;;;2.81;100.00
4598;BME280;62772;48.646;8.906;2024-02-21T05:12:27;96946.41;;;2.99;100.00
4598;BME280;62772;48.646;8.906;2024-02-21T05:17:27;96933.50;;;3.25;100.00
4598;BME280;62772;48.646;8.906;2024-02-21T05:22:27;96916.31;;;3.22;100.00
4598;BME280;62772;48.646;8.906;2024-02-21T05:27:28;96910.59;;;3.08;100.00
4598;BME280;62772;48.646;8.906;2024-02-21T05:32:29;96893.84;;;3.20;100.00
4598;BME280;62772;48.646;8.906;2024-02-21T05:37:30;96883.56;;;2.96;100.00
4598;BME280;62772;48.646;8.906;2024-02-21T05:42:30;96881.03;;;3.06;100.00
4598;BME280;62772;48.646;8.906;2024-02-21T05:47:30;96879.50;;;2.88;100.00
4598;BME280;62772;48.646;8.906;2024-02-21T05:52:31;96880.59;;;2.93;100.00
4598;BME280;62772;48.646;8.906;2024-02-21T05:57:31;96871.34;;;2.90;100.00
4598;BME280;62772;48.646;8.906;2024-02-21T06:02:32;96876.56;;;2.63;100.00
4598;BME280;62772;48.646;8.906;2024-02-21T06:07:33;96870.25;;;2.64;100.00
4598;BME280;62772;48.646;8.906;2024-02-21T06:12:33;96862.56;;;2.84;100.00
4598;BME280;62772;48.646;8.906;2024-02-21T06:17:34;96861.88;;;2.94;100.00
4598;BME280;62772;48.646;8.906;2024-02-21T06:22:34;96865.94;;;2.80;100.00
4598;BME280;62772;48.646;8.906;2024-02-21T06:27:35;96876.44;;;2.52;100.00
4598;BME280;62772;48.646;8.906;2024-02-21T06:32:35;96881.91;;;2.29;100.00
4598;BME280;62772;48.646;8.906;2024-02-21T06:37:36;96883.88;;;2.39;100.00
4598;BME280;62772;48.646;8.906;2024-02-21T06:42:38;96888.75;;;2.47;100.00
4598;BME280;62772;48.646;8.906;2024-02-21T06:47:38;96888.28;;;2.50;100.00
4598;BME280;62772;48.646;8.906;2024-02-21T06:52:38;96874.44;;;2.82;100.00
4598;BME280;62772;48.646;8.906;2024-02-21T06:57:39;96873.00;;;2.52;100.00
4598;BME280;62772;48.646;8.906;2024-02-21T07:02:39;96865.44;;;2.83;100.00
4598;BME280;62772;48.646;8.906;2024-02-21T07:07:40;96871.59;;;2.88;100.00
4598;BME280;62772;48.646;8.906;2024-02-21T07:12:40;96860.56;;;2.92;100.00
4598;BME280;62772;48.646;8.906;2024-02-21T07:17:43;96865.97;;;3.07;100.00
4598;BME280;62772;48.646;8.906;2024-02-21T07:22:44;96862.81;;;2.83;100.00
4598;BME280;62772;48.646;8.906;2024-02-21T07:27:44;96854.69;;;3.12;100.00
4598;BME280;62772;48.646;8.906;2024-02-21T07:32:45;96838.56;;;3.08;100.00
4598;BME280;62772;48.646;8.906;2024-02-21T07:37:45;96832.75;;;3.06;100.00
4598;BME280;62772;48.646;8.906;2024-02-21T07:42:46;96834.63;;;3.11;100.00
4598;BME280;62772;48.646;8.906;2024-02-21T07:47:46;96813.16;;;3.29;100.00
4598;BME280;62772;48.646;8.906;2024-02-21T07:52:46;96813.09;;;3.24;100.00
4598;BME280;62772;48.646;8.906;2024-02-21T07:57:47;96810.06;;;3.37;100.00
4598;BME280;62772;48.646;8.906;2024-02-21T08:02:51;96807.97;;;3.39;100.00
4598;BME280;62772;48.646;8.906;2024-02-21T08:07:51;96813.88;;;3.52;100.00
4598;BME280;62772;48.646;8.906;2024-02-21T08:12:51;96808.28;;;3.48;100.00
4598;BME280;62772;48.646;8.906;2024-02-21T08:17:52;96812.03;;;3.52;100.00
4598;BME280;62772;48.646;8.906;2024-02-21T08:22:52;96813.41;;;3.60;100.00
4598;BME280;62772;48.646;8.906;2024-02-21T08:27:58;96804.03;;;3.79;100.00
4598;BME280;62772;48.646;8.906;2024-02-21T08:32:59;96806.72;;;3.85;100.00
4598;BME280;62772;48.646;8.906;2024-02-21T08:37:59;96789.59;;;3.92;100.00
4598;BME280;62772;48.646;8.906;2024-02-21T08:43:00;96789.88;;;3.96;100.00
4598;BME280;62772;48.646;8.906;2024-02-21T08:48:00;96782.28;;;4.10;100.00
4598;BME280;62772;48.646;8.906;2024-02-21T08:53:01;96780.75;;;4.19;100.00
4598;BME280;62772;48.646;8.906;2024-02-21T08:58:01;96766.50;;;4.20;100.00
4598;BME280;62772;48.646;8.906;2024-02-21T09:03:04;96755.69;;;4.32;100.00
4598;BME280;62772;48.646;8.906;2024-02-21T09:08:05;96751.00;;;4.44;100.00
4598;BME280;62772;48.646;8.906;2024-02-21T09:13:06;96747.06;;;4.52;100.00
4598;BME280;62772;48.646;8.906;2024-02-21T09:18:08;96742.81;;;4.56;100.00
4598;BME280;62772;48.646;8.906;2024-02-21T09:23:08;96729.34;;;4.63;100.00
4598;BME280;62772;48.646;8.906;2024-02-21T09:28:09;96734.13;;;4.66;100.00
4598;BME280;62772;48.646;8.906;2024-02-21T09:33:10;96733.63;;;4.89;100.00
4598;BME280;62772;48.646;8.906;2024-02-21T09:38:11;96729.16;;;4.95;100.00
4598;BME280;62772;48.646;8.906;2024-02-21T09:43:12;96729.44;;;5.09;100.00
4598;BME280;62772;48.646;8.906;2024-02-21T09:53:57;96712.75;;;5.29;100.00
4598;BME280;62772;48.646;8.906;2024-02-21T09:58:58;96709.84;;;5.41;100.00
4598;BME280;62772;48.646;8.906;2024-02-21T10:03:59;96703.44;;;5.57;100.00
4598;BME280;62772;48.646;8.906;2024-02-21T10:08:59;96706.06;;;5.78;100.00
4598;BME280;62772;48.646;8.906;2024-02-21T10:14:06;96681.63;;;5.91;100.00
4598;BME280;62772;48.646;8.906;2024-02-21T10:19:16;96677.94;;;5.97;100.00
4598;BME280;62772;48.646;8.906;2024-02-21T10:24:26;96680.00;;;6.11;100.00
4598;BME280;62772;48.646;8.906;2024-02-21T10:29:26;96674.91;;;6.25;100.00
4598;BME280;62772;48.646;8.906;2024-02-21T10:34:27;96670.81;;;6.48;100.00
4598;BME280;62772;48.646;8.906;2024-02-21T10:39:27;96660.91;;;6.64;100.00
4598;BME280;62772;48.646;8.906;2024-02-21T10:44:32;96649.72;;;6.67;100.00
4598;BME280;62772;48.646;8.906;2024-02-21T10:49:38;96639.56;;;6.74;100.00
4598;BME280;62772;48.646;8.906;2024-02-21T10:59:45;96621.06;;;6.98;100.00
4598;BME280;62772;48.646;8.906;2024-02-21T11:04:46;96620.50;;;7.01;100.00
4598;BME280;62772;48.646;8.906;2024-02-21T11:09:51;96606.03;;;7.18;100.00
4598;BME280;62772;48.646;8.906;2024-02-21T11:15:03;96597.19;;;7.28;100.00
4598;BME280;62772;48.646;8.906;2024-02-21T11:20:14;96582.38;;;7.45;100.00
4598;BME280;62772;48.646;8.906;2024-02-21T11:25:21;96559.63;;;7.58;100.00
4598;BME280;62772;48.646;8.906;2024-02-21T11:30:26;96564.00;;;7.73;100.00
4598;BME280;62772;48.646;8.906;2024-02-21T11:35:31;96556.72;;;7.79;100.00
4598;BME280;62772;48.646;8.906;2024-02-21T11:40:33;96537.75;;;7.86;100.00
4598;BME280;62772;48.646;8.906;2024-02-21T11:45:34;96534.69;;;7.97;100.00
4598;BME280;62772;48.646;8.906;2024-02-21T11:50:35;96524.13;;;8.11;100.00
4598;BME280;62772;48.646;8.906;2024-02-21T11:55:40;96513.50;;;8.11;100.00
4598;BME280;62772;48.646;8.906;2024-02-21T12:00:40;96509.06;;;8.21;100.00
4598;BME280;62772;48.646;8.906;2024-02-21T12:05:41;96501.16;;;8.34;100.00
4598;BME280;62772;48.646;8.906;2024-02-21T12:10:42;96487.19;;;8.43;100.00
4598;BME280;62772;48.646;8.906;2024-02-21T12:15:47;96472.25;;;8.47;100.00
4598;BME280;62772;48.646;8.906;2024-02-21T12:20:48;96468.94;;;8.69;100.00
4598;BME280;62772;48.646;8.906;2024-02-21T12:25:48;96453.59;;;8.80;100.00
4598;BME280;62772;48.646;8.906;2024-02-21T12:30:52;96449.91;;;8.76;100.00
4598;BME280;62772;48.646;8.906;2024-02-21T12:35:53;96435.44;;;8.96;100.00
4598;BME280;62772;48.646;8.906;2024-02-21T12:40:55;96424.69;;;9.01;100.00
4598;BME280;62772;48.646;8.906;2024-02-21T12:45:57;96413.72;;;9.16;100.00
4598;BME280;62772;48.646;8.906;2024-02-21T12:50:59;96408.06;;;9.18;100.00
4598;BME280;62772;48.646;8.906;2024-02-21T12:56:00;96395.16;;;9.25;100.00
4598;BME280;62772;48.646;8.906;2024-02-21T13:01:00;96385.38;;;9.34;100.00
4598;BME280;62772;48.646;8.906;2024-02-21T13:06:01;96384.53;;;9.48;100.00
4598;BME280;62772;48.646;8.906;2024-02-21T13:11:01;96365.66;;;9.58;100.00
4598;BME280;62772;48.646;8.906;2024-02-21T13:16:02;96356.53;;;9.59;100.00
4598;BME280;62772;48.646;8.906;2024-02-21T13:21:07;96343.50;;;9.57;100.00
4598;BME280;62772;48.646;8.906;2024-02-21T13:26:07;96346.13;;;9.71;100.00
4598;BME280;62772;48.646;8.906;2024-02-21T13:31:07;96328.16;;;9.77;100.00
4598;BME280;62772;48.646;8.906;2024-02-21T13:36:08;96316.50;;;9.73;100.00
4598;BME280;62772;48.646;8.906;2024-02-21T13:41:10;96315.31;;;9.88;93.01
4598;BME280;62772;48.646;8.906;2024-02-21T13:46:10;96288.94;;;9.86;83.24
4598;BME280;62772;48.646;8.906;2024-02-21T13:51:11;96279.72;;;9.92;84.90
4598;BME280;62772;48.646;8.906;2024-02-21T13:56:12;96273.63;;;9.92;72.08
4598;BME280;62772;48.646;8.906;2024-02-21T14:01:12;96271.25;;;9.90;75.76
4598;BME280;62772;48.646;8.906;2024-02-21T14:06:13;96262.88;;;10.06;77.92
4598;BME280;62772;48.646;8.906;2024-02-21T14:11:13;96257.53;;;10.06;79.44
4598;BME280;62772;48.646;8.906;2024-02-21T14:16:14;96261.56;;;9.94;86.19
4598;BME280;62772;48.646;8.906;2024-02-21T14:21:15;96264.22;;;9.94;91.99
4598;BME280;62772;48.646;8.906;2024-02-21T14:26:15;96256.09;;;10.08;97.58
4598;BME280;62772;48.646;8.906;2024-02-21T14:31:16;96241.06;;;10.12;100.00
4598;BME280;62772;48.646;8.906;2024-02-21T14:36:17;96233.97;;;10.08;100.00
4598;BME280;62772;48.646;8.906;2024-02-21T14:41:18;96231.16;;;10.13;100.00
4598;BME280;62772;48.646;8.906;2024-02-21T14:46:19;96216.88;;;10.09;100.00
4598;BME280;62772;48.646;8.906;2024-02-21T14:51:19;96218.44;;;10.10;100.00
4598;BME280;62772;48.646;8.906;2024-02-21T14:56:19;96219.88;;;10.07;100.00
4598;BME280;62772;48.646;8.906;2024-02-21T15:01:20;96219.78;;;9.90;100.00
4598;BME280;62772;48.646;8.906;2024-02-21T15:06:21;96206.16;;;9.91;100.00
4598;BME280;62772;48.646;8.906;2024-02-21T15:11:21;96175.56;;;9.97;100.00
4598;BME280;62772;48.646;8.906;2024-02-21T15:16:22;96158.47;;;9.98;100.00
4598;BME280;62772;48.646;8.906;2024-02-21T15:21:23;96149.94;;;9.79;100.00
4598;BME280;62772;48.646;8.906;2024-02-21T15:26:23;96143.31;;;9.76;100.00
4598;BME280;62772;48.646;8.906;2024-02-21T15:31:24;96131.59;;;9.86;100.00
4598;BME280;62772;48.646;8.906;2024-02-21T15:36:25;96116.34;;;9.78;100.00
4598;BME280;62772;48.646;8.906;2024-02-21T15:41:26;96114.94;;;9.80;100.00
4598;BME280;62772;48.646;8.906;2024-02-21T15:46:26;96105.72;;;9.87;100.00
4598;BME280;62772;48.646;8.906;2024-02-21T15:51:27;96104.59;;;9.79;100.00
4598;BME280;62772;48.646;8.906;2024-02-21T15:56:27;96102.69;;;9.71;100.00
4598;BME280;62772;48.646;8.906;2024-02-21T16:01:28;96102.69;;;9.71;100.00
4598;BME280;62772;48.646;8.906;2024-02-21T16:06:28;96091.75;;;9.90;100.00
4598;BME280;62772;48.646;8.906;2024-02-21T16:11:28;96066.63;;;9.82;100.00
4598;BME280;62772;48.646;8.906;2024-02-21T16:16:29;96064.13;;;9.86;100.00
4598;BME280;62772;48.646;8.906;2024-02-21T16:21:30;96057.63;;;9.60;100.00
4598;BME280;62772;48.646;8.906;2024-02-21T16:26:34;96052.94;;;9.66;100.00
4598;BME280;62772;48.646;8.906;2024-02-21T16:31:35;96039.75;;;9.61;100.00
4598;BME280;62772;48.646;8.906;2024-02-21T16:36:37;96030.19;;;9.60;100.00
4598;BME280;62772;48.646;8.906;2024-02-21T16:41:39;96027.75;;;9.32;100.00
4598;BME280;62772;48.646;8.906;2024-02-21T16:46:39;96025.09;;;9.32;100.00
4598;BME280;62772;48.646;8.906;2024-02-21T16:51:39;96013.94;;;9.21;100.00
4598;BME280;62772;48.646;8.906;2024-02-21T16:56:40;96000.31;;;9.32;100.00
4598;BME280;62772;48.646;8.906;2024-02-21T17:01:40;96009.38;;;9.22;100.00
4598;BME280;62772;48.646;8.906;2024-02-21T17:06:41;96016.38;;;9.09;100.00
4598;BME280;62772;48.646;8.906;2024-02-21T17:11:42;96015.53;;;8.91;100.00
4598;BME280;62772;48.646;8.906;2024-02-21T17:16:42;96017.25;;;8.96;100.00
4598;BME280;62772;48.646;8.906;2024-02-21T17:21:43;96004.13;;;9.08;100.00
4598;BME280;62772;48.646;8.906;2024-02-21T17:26:43;95987.69;;;9.06;100.00
4598;BME280;62772;48.646;8.906;2024-02-21T17:31:44;95979.47;;;8.85;100.00
4598;BME280;62772;48.646;8.906;2024-02-21T17:36:44;95992.50;;;8.95;100.00
4598;BME280;62772;48.646;8.906;2024-02-21T17:41:46;95976.19;;;8.88;100.00
4598;BME280;62772;48.646;8.906;2024-02-21T17:46:46;95984.34;;;8.92;100.00
4598;BME280;62772;48.646;8.906;2024-02-21T17:51:47;95971.78;;;8.92;100.00
4598;BME280;62772;48.646;8.906;2024-02-21T17:56:47;95987.00;;;8.92;100.00
4598;BME280;62772;48.646;8.906;2024-02-21T18:01:48;95984.94;;;8.88;100.00
4598;BME280;62772;48.646;8.906;2024-02-21T18:06:48;95967.06;;;8.80;100.00
4598;BME280;62772;48.646;8.906;2024-02-21T18:11:49;95968.13;;;8.79;100.00
4598;BME280;62772;48.646;8.906;2024-02-21T18:16:50;95955.78;;;8.52;100.00
4598;BME280;62772;48.646;8.906;2024-02-21T18:21:50;95954.97;;;8.74;100.00
4598;BME280;62772;48.646;8.906;2024-02-21T18:26:51;95947.44;;;8.76;100.00
4598;BME280;62772;48.646;8.906;2024-02-21T18:31:55;95948.78;;;8.56;100.00
4598;BME280;62772;48.646;8.906;2024-02-21T18:36:55;95928.72;;;8.50;100.00
4598;BME280;62772;48.646;8.906;2024-02-21T18:41:56;95930.25;;;8.51;100.00
4598;BME280;62772;48.646;8.906;2024-02-21T18:46:57;95919.13;;;8.49;100.00
4598;BME280;62772;48.646;8.906;2024-02-21T18:51:57;95917.63;;;8.57;100.00
4598;BME280;62772;48.646;8.906;2024-02-21T18:56:58;95909.50;;;8.39;100.00
4598;BME280;62772;48.646;8.906;2024-02-21T19:01:59;95895.50;;;8.25;100.00
4598;BME280;62772;48.646;8.906;2024-02-21T19:07:00;95887.56;;;8.33;100.00
4598;BME280;62772;48.646;8.906;2024-02-21T19:12:00;95900.97;;;7.97;100.00
4598;BME280;62772;48.646;8.906;2024-02-21T19:17:01;95904.91;;;7.99;100.00
4598;BME280;62772;48.646;8.906;2024-02-21T19:22:01;95902.97;;;7.91;100.00
4598;BME280;62772;48.646;8.906;2024-02-21T19:27:04;95882.78;;;8.13;100.00
4598;BME280;62772;48.646;8.906;2024-02-21T19:32:05;95884.03;;;8.15;100.00
4598;BME280;62772;48.646;8.906;2024-02-21T19:37:05;95886.34;;;8.08;100.00
4598;BME280;62772;48.646;8.906;2024-02-21T19:42:06;95861.50;;;8.13;100.00
4598;BME280;62772;48.646;8.906;2024-02-21T19:47:07;95845.63;;;7.76;100.00
4598;BME280;62772;48.646;8.906;2024-02-21T19:52:07;95866.34;;;7.43;100.00
4598;BME280;62772;48.646;8.906;2024-02-21T19:57:08;95860.56;;;7.63;100.00
4598;BME280;62772;48.646;8.906;2024-02-21T20:02:08;95854.31;;;7.45;100.00
4598;BME280;62772;48.646;8.906;2024-02-21T20:07:09;95852.81;;;7.76;100.00
4598;BME280;62772;48.646;8.906;2024-02-21T20:12:09;95848.72;;;7.92;100.00
4598;BME280;62772;48.646;8.906;2024-02-21T20:17:10;95851.91;;;7.58;100.00
4598;BME280;62772;48.646;8.906;2024-02-21T20:22:11;95830.88;;;7.93;100.00
4598;BME280;62772;48.646;8.906;2024-02-21T20:27:11;95824.16;;;7.73;100.00
4598;BME280;62772;48.646;8.906;2024-02-21T20:32:13;95813.53;;;7.95;100.00
4598;BME280;62772;48.646;8.906;2024-02-21T20:37:14;95801.31;;;7.94;100.00
4598;BME280;62772;48.646;8.906;2024-02-21T20:42:14;95793.34;;;8.34;100.00
4598;BME280;62772;48.646;8.906;2024-02-21T20:47:18;95785.66;;;8.73;100.00
4598;BME280;62772;48.646;8.906;2024-02-21T20:52:20;95783.75;;;8.65;100.00
4598;BME280;62772;48.646;8.906;2024-02-21T20:57:20;95791.31;;;8.89;100.00
4598;BME280;62772;48.646;8.906;2024-02-21T21:02:21;95776.94;;;9.07;95.63
4598;BME280;62772;48.646;8.906;2024-02-21T21:07:22;95791.84;;;9.26;96.76
4598;BME280;62772;48.646;8.906;2024-02-21T21:12:22;95772.84;;;9.36;100.00
4598;BME280;62772;48.646;8.906;2024-02-21T21:17:23;95758.94;;;9.31;100.00
4598;BME280;62772;48.646;8.906;2024-02-21T21:22:23;95741.19;;;9.35;100.00
4598;BME280;62772;48.646;8.906;2024-02-21T21:27:24;95721.00;;;9.25;100.00
4598;BME280;62772;48.646;8.906;2024-02-21T21:32:27;95689.34;;;9.15;100.00
4598;BME280;62772;48.646;8.906;2024-02-21T21:37:28;95672.09;;;9.12;100.00
4598;BME280;62772;48.646;8.906;2024-02-21T21:42:29;95638.09;;;9.18;100.00
4598;BME280;62772;48.646;8.906;2024-02-21T21:47:30;95627.28;;;9.14;100.00
4598;BME280;62772;48.646;8.906;2024-02-21T21:52:31;95624.00;;;9.17;100.00
4598;BME280;62772;48.646;8.906;2024-02-21T21:57:32;95613.78;;;9.19;100.00
4598;BME280;62772;48.646;8.906;2024-02-21T22:02:33;95603.31;;;9.23;100.00
4598;BME280;62772;48.646;8.906;2024-02-21T22:07:33;95580.28;;;9.18;100.00
4598;BME280;62772;48.646;8.906;2024-02-21T22:12:34;95589.66;;;9.24;100.00
4598;BME280;62772;48.646;8.906;2024-02-21T22:17:34;95581.97;;;9.23;100.00
4598;BME280;62772;48.646;8.906;2024-02-21T22:22:37;95579.19;;;9.11;100.00
4598;BME280;62772;48.646;8.906;2024-02-21T22:27:37;95585.59;;;9.18;100.00
4598;BME280;62772;48.646;8.906;2024-02-21T22:32:38;95576.53;;;9.11;100.00
4598;BME280;62772;48.646;8.906;2024-02-21T22:37:38;95564.91;;;9.15;100.00
4598;BME280;62772;48.646;8.906;2024-02-21T22:42:40;95573.09;;;9.10;100.00
4598;BME280;62772;48.646;8.906;2024-02-21T22:47:41;95566.97;;;9.10;100.00
4598;BME280;62772;48.646;8.906;2024-02-21T22:52:42;95559.78;;;9.10;100.00
4598;BME280;62772;48.646;8.906;2024-02-21T22:57:43;95542.84;;;9.06;100.00
4598;BME280;62772;48.646;8.906;2024-02-21T23:02:43;95545.19;;;9.16;100.00
4598;BME280;62772;48.646;8.906;2024-02-21T23:07:44;95559.47;;;9.12;100.00
4598;BME280;62772;48.646;8.906;2024-02-21T23:12:44;95535.16;;;9.13;100.00
4598;BME280;62772;48.646;8.906;2024-02-21T23:17:45;95539.50;;;9.18;100.00
4598;BME280;62772;48.646;8.906;2024-02-21T23:22:45;95533.72;;;9.24;100.00
4598;BME280;62772;48.646;8.906;2024-02-21T23:27:46;95527.25;;;9.25;100.00
4598;BME280;62772;48.646;8.906;2024-02-21T23:32:47;95518.31;;;9.30;100.00
4598;BME280;62772;48.646;8.906;2024-02-21T23:37:48;95520.84;;;9.26;100.00
4598;BME280;62772;48.646;8.906;2024-02-21T23:42:48;95500.47;;;9.22;100.00
4598;BME280;62772;48.646;8.906;2024-02-21T23:47:49;95517.44;;;9.17;100.00
4598;BME280;62772;48.646;8.906;2024-02-21T23:52:49;95501.81;;;9.07;100.00
4598;BME280;62772;48.646;8.906;2024-02-21T23:57:50;95486.03;;;8.84;100.00
